createdAt,value
2018-09-29T00:03:28.672Z,102594.31
2018-09-29T00:08:31.796Z,102595.19
2018-09-29T00:13:34.912Z,102586.91
2018-09-29T00:18:38.012Z,102590.84
2018-09-29T00:23:41.076Z,102589.95
2018-09-29T00:28:44.141Z,102561.56
2018-09-29T00:33:47.259Z,102596.91
2018-09-29T00:38:50.331Z,102597.33
2018-09-29T00:43:53.441Z,102593.80
2018-09-29T00:48:56.507Z,102588.12
2018-09-29T00:53:59.592Z,102588.12
2018-09-29T00:59:02.706Z,102585.48
2018-09-29T01:04:06.260Z,102577.68
2018-09-29T01:09:09.793Z,102576.80
2018-09-29T01:14:13.275Z,102574.19
2018-09-29T01:19:16.700Z,102582.48
2018-09-29T01:24:19.817Z,102568.96
2018-09-29T01:29:22.895Z,102585.06
2018-09-29T01:34:26.203Z,102574.61
2018-09-29T01:39:29.296Z,102590.67
2018-09-29T01:44:32.459Z,102600.64
2018-09-29T01:49:35.543Z,102600.17
2018-09-29T01:54:38.621Z,102593.17
2018-09-29T01:59:41.745Z,102585.78
2018-09-29T02:04:44.792Z,102578.36
2018-09-29T02:09:48.047Z,102583.16
2018-09-29T02:14:51.117Z,102582.27
2018-09-29T02:19:54.297Z,102568.75
2018-09-29T02:24:57.369Z,102577.04
2018-09-29T02:30:00.432Z,102573.13
2018-09-29T02:35:03.532Z,102571.41
2018-09-29T02:40:06.675Z,102575.75
2018-09-29T02:45:09.887Z,102580.90
2018-09-29T02:50:12.974Z,102583.03
2018-09-29T02:55:16.053Z,102581.66
2018-09-29T03:00:19.131Z,102579.03
2018-09-29T03:05:22.224Z,102585.89
2018-09-29T03:10:25.596Z,102577.62
2018-09-29T03:15:28.978Z,102579.67
2018-09-29T03:20:32.152Z,102576.66
2018-09-29T03:25:35.239Z,102581.89
2018-09-29T03:30:38.306Z,102577.58
2018-09-29T03:35:41.395Z,102571.87
2018-09-29T03:40:44.471Z,102575.78
2018-09-29T03:45:47.543Z,102580.48
2018-09-29T03:50:50.602Z,102575.66
2018-09-29T03:55:53.687Z,102578.76
2018-09-29T04:00:56.843Z,102587.02
2018-09-29T04:05:59.943Z,102588.77
2018-09-29T04:11:03.119Z,102592.27
2018-09-29T04:16:06.284Z,102595.75
2018-09-29T04:21:09.346Z,102579.66
2018-09-29T04:26:12.403Z,102583.91
2018-09-29T04:31:15.489Z,102584.38
2018-09-29T04:36:18.594Z,102575.26
2018-09-29T04:41:21.680Z,102573.06
2018-09-29T04:46:24.931Z,102566.94
2018-09-29T04:51:28.055Z,102574.74
2018-09-29T04:56:31.872Z,102585.09
2018-09-29T05:01:34.979Z,102592.02
2018-09-29T05:06:38.232Z,102602.91
2018-09-29T05:11:41.227Z,102604.22
2018-09-29T05:16:44.328Z,102602.80
2018-09-29T05:21:47.399Z,102601.85
2018-09-29T05:26:50.522Z,102611.94
2018-09-29T05:31:53.623Z,102613.31
2018-09-29T05:36:56.704Z,102617.33
2018-09-29T05:41:59.803Z,102611.27
2018-09-29T05:47:02.959Z,102604.73
2018-09-29T05:52:06.159Z,102617.00
2018-09-29T05:57:09.224Z,102604.51
2018-09-29T06:02:12.270Z,102611.03
2018-09-29T06:07:15.402Z,102614.16
2018-09-29T06:12:18.496Z,102611.64
2018-09-29T06:17:21.587Z,102612.62
2018-09-29T06:22:24.691Z,102617.02
2018-09-29T06:27:27.791Z,102613.17
2018-09-29T06:32:30.883Z,102611.50
2018-09-29T06:37:33.999Z,102609.37
2018-09-29T06:42:37.166Z,102611.60
2018-09-29T06:47:40.270Z,102617.75
2018-09-29T06:52:43.323Z,102615.20
2018-09-29T06:57:46.411Z,102616.95
2018-09-29T07:02:49.622Z,102620.88
2018-09-29T07:07:54.891Z,102621.34
2018-09-29T07:12:58.088Z,102629.20
2018-09-29T07:18:05.256Z,102626.13
2018-09-29T07:23:08.704Z,102626.09
2018-09-29T07:28:11.945Z,102632.61
2018-09-29T07:33:15.071Z,102631.66
2018-09-29T07:38:18.616Z,102639.02
2018-09-29T07:43:21.856Z,102637.61
2018-09-29T07:48:25.078Z,102625.26
2018-09-29T07:53:28.115Z,102615.09
2018-09-29T07:58:31.218Z,102616.62
2018-09-29T08:03:34.308Z,102620.78
2018-09-29T08:08:37.418Z,102624.11
2018-09-29T08:13:40.540Z,102626.89
2018-09-29T08:18:43.739Z,102622.72
2018-09-29T08:23:46.882Z,102626.84
2018-09-29T08:28:49.988Z,102618.66
2018-09-29T08:33:53.104Z,102614.09
2018-09-29T08:38:56.159Z,102622.19
2018-09-29T08:43:59.224Z,102615.30
2018-09-29T08:49:02.341Z,102619.81
2018-09-29T08:54:05.447Z,102623.47
2018-09-29T08:59:08.528Z,102627.11
2018-09-29T09:04:11.640Z,102624.26
2018-09-29T09:09:14.759Z,102628.83
2018-09-29T09:14:17.832Z,102626.73
2018-09-29T09:19:21.013Z,102625.98
2018-09-29T09:24:24.144Z,102615.70
2018-09-29T09:29:27.252Z,102611.70
2018-09-29T09:34:30.343Z,102601.89
2018-09-29T09:39:33.423Z,102600.25
2018-09-29T09:44:36.479Z,102591.91
2018-09-29T09:49:39.567Z,102593.32
2018-09-29T09:54:43.283Z,102587.28
2018-09-29T09:59:46.440Z,102581.98
2018-09-29T10:04:49.527Z,102580.14
2018-09-29T10:09:52.608Z,102577.02
2018-09-29T10:14:55.784Z,102573.80
2018-09-29T10:19:58.887Z,102565.23
2018-09-29T10:25:01.961Z,102562.78
2018-09-29T10:30:05.826Z,102547.42
2018-09-29T10:35:08.943Z,102542.77
2018-09-29T10:40:12.089Z,102530.12
2018-09-29T10:45:15.972Z,102525.04
2018-09-29T10:50:19.122Z,102517.00
2018-09-29T10:55:22.243Z,102509.02
2018-09-29T11:00:25.294Z,102510.25
2018-09-29T11:05:28.393Z,102501.87
2018-09-29T11:10:31.672Z,102492.28
2018-09-29T11:15:34.871Z,102487.58
2018-09-29T11:20:38.060Z,102487.92
2018-09-29T11:25:41.257Z,102479.39
2018-09-29T11:30:44.342Z,102477.64
2018-09-29T11:35:47.507Z,102465.88
2018-09-29T11:40:50.633Z,102462.58
2018-09-29T11:45:53.735Z,102451.66
2018-09-29T11:50:56.843Z,102434.17
2018-09-29T11:55:59.929Z,102428.44
2018-09-29T12:01:03.086Z,102412.81
2018-09-29T12:06:06.298Z,102408.49
2018-09-29T12:11:09.636Z,102401.39
2018-09-29T12:16:12.833Z,102385.35
2018-09-29T12:21:15.963Z,102384.29
2018-09-29T12:26:21.141Z,102373.73
2018-09-29T12:31:24.456Z,102354.74
2018-09-29T12:36:27.528Z,102355.33
2018-09-29T12:41:30.731Z,102344.03
2018-09-29T12:46:33.835Z,102339.59
2018-09-29T12:51:36.989Z,102328.70
2018-09-29T12:56:41.007Z,102320.39
2018-09-29T13:01:44.253Z,102315.61
2018-09-29T13:06:47.455Z,102301.37
2018-09-29T13:11:50.546Z,102302.19
2018-09-29T13:16:53.766Z,102290.18
2018-09-29T13:21:56.798Z,102287.61
2018-09-29T13:26:59.965Z,102273.62
2018-09-29T13:32:03.349Z,102274.14
2018-09-29T13:37:06.508Z,102275.33
2018-09-29T13:42:09.634Z,102259.02
2018-09-29T13:47:12.767Z,102259.55
2018-09-29T13:52:16.663Z,102260.07
2018-09-29T13:57:20.020Z,102252.05
2018-09-29T14:02:23.148Z,102246.81
2018-09-29T14:07:26.224Z,102234.55
2018-09-29T14:12:29.345Z,102233.13
2018-09-29T14:17:32.438Z,102222.27
2018-09-29T14:22:35.522Z,102215.02
2018-09-29T14:27:38.600Z,102213.62
2018-09-29T14:32:41.741Z,102199.87
2018-09-29T14:37:44.926Z,102193.73
2018-09-29T14:42:48.059Z,102185.73
2018-09-29T14:47:51.144Z,102184.75
2018-09-29T14:52:54.229Z,102168.09
2018-09-29T14:57:57.358Z,102171.18
2018-09-29T15:03:00.452Z,102161.23
2018-09-29T15:08:03.585Z,102157.48
2018-09-29T15:13:06.711Z,102150.97
2018-09-29T15:18:09.835Z,102137.50
2018-09-29T15:23:12.979Z,102130.39
2018-09-29T15:28:16.082Z,102123.11
2018-09-29T15:33:19.180Z,102122.89
2018-09-29T15:38:22.275Z,102112.72
2018-09-29T15:43:25.349Z,102112.27
2018-09-29T15:48:28.427Z,102113.40
2018-09-29T15:53:31.511Z,102104.19
2018-09-29T15:58:34.583Z,102099.98
2018-09-29T16:03:37.743Z,102097.02
2018-09-29T16:08:40.831Z,102099.32
2018-09-29T16:13:43.898Z,102086.94
2018-09-29T16:18:46.989Z,102090.65
2018-09-29T16:23:50.059Z,102083.64
2018-09-29T16:28:53.743Z,102074.16
2018-09-29T16:33:56.862Z,102069.25
2018-09-29T16:39:00.027Z,102071.64
2018-09-29T16:44:03.149Z,102064.61
2018-09-29T16:49:06.304Z,102062.47
2018-09-29T16:54:09.520Z,102064.22
2018-09-29T16:59:12.635Z,102059.19
2018-09-29T17:04:15.770Z,102055.89
2018-09-29T17:09:18.803Z,102058.17
2018-09-29T17:14:21.899Z,102054.15
2018-09-29T17:19:24.952Z,102054.63
2018-09-29T17:24:28.069Z,102051.65
2018-09-29T17:29:31.180Z,102048.11
2018-09-29T17:34:34.250Z,102035.50
2018-09-29T17:39:37.403Z,102039.90
2018-09-29T17:44:40.488Z,102040.98
2018-09-29T17:49:43.595Z,102042.22
2018-09-29T17:54:46.754Z,102043.78
2018-09-29T17:59:50.005Z,102041.08
2018-09-29T18:04:53.495Z,102039.52
2018-09-29T18:09:56.567Z,102045.25
2018-09-29T18:15:00.203Z,102042.70
2018-09-29T18:20:04.099Z,102035.69
2018-09-29T18:25:07.268Z,102042.31
2018-09-29T18:30:10.365Z,102045.92
2018-09-29T18:35:13.951Z,102043.55
2018-09-29T18:40:18.121Z,102046.25
2018-09-29T18:45:21.895Z,102048.36
2018-09-29T18:50:25.091Z,102046.33
2018-09-29T18:55:29.172Z,102048.59
2018-09-29T19:00:34.072Z,102039.26
2018-09-29T19:05:37.647Z,102042.76
2018-09-29T19:10:41.734Z,102028.42
2018-09-29T19:15:45.223Z,102024.08
2018-09-29T19:20:49.144Z,102012.88
2018-09-29T19:25:53.159Z,102008.28
2018-09-29T19:30:57.176Z,102012.73
2018-09-29T19:36:00.700Z,102011.97
2018-09-29T19:41:04.455Z,102007.70
2018-09-29T19:46:08.483Z,101998.69
2018-09-29T19:51:12.405Z,101996.81
2018-09-29T19:56:16.848Z,101994.72
2018-09-29T20:01:20.013Z,101992.30
2018-09-29T20:06:23.083Z,101985.50
2018-09-29T20:11:26.179Z,101980.72
2018-09-29T20:16:29.373Z,101979.51
2018-09-29T20:21:32.590Z,101977.55
2018-09-29T20:26:35.671Z,101974.61
2018-09-29T20:31:39.022Z,101976.69
2018-09-29T20:36:42.112Z,101972.34
2018-09-29T20:41:45.195Z,101964.59
2018-09-29T20:46:48.280Z,101953.73
2018-09-29T20:51:51.379Z,101948.64
2018-09-29T20:56:54.491Z,101945.62
2018-09-29T21:01:57.563Z,101940.22
2018-09-29T21:07:00.627Z,101928.14
2018-09-29T21:12:03.723Z,101915.53
2018-09-29T21:17:06.816Z,101906.56
2018-09-29T21:22:09.896Z,101899.09
2018-09-29T21:27:12.989Z,101905.13
2018-09-29T21:32:16.093Z,101895.55
2018-09-29T21:37:19.416Z,101890.01
2018-09-29T21:42:22.585Z,101886.67
2018-09-29T21:47:25.687Z,101881.05
2018-09-29T21:52:28.862Z,101875.88
2018-09-29T21:57:31.887Z,101880.28
2018-09-29T22:02:34.989Z,101877.80
2018-09-29T22:07:38.082Z,101879.19
2018-09-29T22:12:41.209Z,101869.34
2018-09-29T22:17:44.280Z,101862.78
2018-09-29T22:22:47.363Z,101860.77
2018-09-29T22:27:50.448Z,101864.42
2018-09-29T22:32:53.566Z,101854.07
2018-09-29T22:37:56.632Z,101857.08
2018-09-29T22:42:59.733Z,101843.61
2018-09-29T22:48:02.924Z,101837.32
2018-09-29T22:53:06.188Z,101831.22
2018-09-29T22:58:09.411Z,101828.25
2018-09-29T23:03:12.583Z,101823.94
2018-09-29T23:08:15.744Z,101809.17
2018-09-29T23:13:18.877Z,101812.17
2018-09-29T23:18:22.068Z,101803.92
2018-09-29T23:23:25.140Z,101802.22
2018-09-29T23:28:28.617Z,101799.27
2018-09-29T23:33:31.737Z,101795.02
2018-09-29T23:38:34.783Z,101784.59
2018-09-29T23:43:37.844Z,101779.92
2018-09-29T23:48:40.957Z,101772.09
2018-09-29T23:53:44.036Z,101773.00
2018-09-29T23:58:47.102Z,101755.63
